Tiempo atmosférico en la estación meteorológica de Lugo, Lugo (442 m.)



Fecha
DESCASC
Temp. máxima en grados centígrados (hora)
DESCASC
Temp. mínima en grados centígrados (hora)
DESCASC
Temp. media en grados centígrados
DESCASC
Racha de viento máxima en m/sg (hora)
DESCASC
Velocidad máxima media en intervalos de 10 minutos(hora)
DESCASC
Precipitaciones diarias en mm
DESCASC
Precipitaciones de 00:00 a 06:00 en mm
DESCASC
Precipitaciones de 06:00 a 12:00 en mm
DESCASC
Precipitaciones de 12:00 a 18:00 en mm
DESCASC
Precipitaciones de 18:00 a 24:00 en mm
DESCASC
23-06-2019 23.9 (17:50) 12.3 (04:50) 18.1 7.5 (19:10) 3.33 (19:20) -- -- -- -- --
22-06-2019 26.6 (15:10) 11.4 (07:30) 19 8.06 (15:30) 3.33 (15:30) -- -- -- -- --
21-06-2019 23.8 (16:30) 11.7 (04:50) 17.7 6.94 (17:50) 3.33 (18:10) -- -- -- -- --
20-06-2019 18.2 (17:20) 12.5 (00:00) 15.4 8.33 (18:40) 3.89 (15:30) -- -- -- -- --
19-06-2019 19.1 (12:40) 12.4 (00:00) 15.8 6.11 (17:30) 2.5 (16:10) -- -- -- -- --
18-06-2019 21.3 (15:40) 11.9 (00:00) 16.6 8.33 (16:10) 2.5 (16:10) -- -- -- -- --
17-06-2019 24.5 (20:30) 12.2 (00:00) 18.3 4.44 (02:00) 2.22 (00:30) -- -- -- -- --
16-06-2019 27 (17:50) 6.7 (00:00) 16.8 9.72 (18:30) 4.72 (18:30) -- -- -- -- --
15-06-2019 19.4 (18:40) 9.9 (00:00) 14.6 6.67 (10:40) 3.06 (15:50) -- -- -- -- --
14-06-2019 19.4 (15:50) 4.9 (00:00) 12.1 6.67 (19:40) 3.33 (18:10) -- -- -- -- --
13-06-2019 19.1 (15:20) 7.1 (00:00) 13.1 6.11 (19:20) 2.5 (19:30) -- -- -- -- --
12-06-2019 19.3 (17:50) 6.8 (00:00) 13 6.67 (16:10) 2.78 (19:30) -- -- -- -- --
11-06-2019 16.4 (18:30) 8.9 (00:00) 12.6 7.78 (05:40) 3.61 (16:40) -- -- -- -- --
10-06-2019 19 (16:00) 8.9 (00:00) 13.9 6.11 (20:40) 2.78 (19:10) -- -- -- -- --
09-06-2019 16.9 (17:20) 8.8 (00:00) 12.8 6.94 (16:10) 3.33 (17:40) -- -- -- -- --
08-06-2019 18.7 (15:40) 5.4 (00:00) 12.1 7.22 (18:50) 3.89 (18:50) -- -- -- -- --
07-06-2019 16.1 (18:30) 6.9 (00:00) 11.5 9.44 (14:40) 4.17 (00:20) -- -- -- -- --
06-06-2019 15.1 (13:20) 8 (00:00) 11.6 16.11 (18:10) 6.39 (18:10) -- -- -- -- --
05-06-2019 15.5 (15:50) 8.6 (00:00) 12.1 9.72 (16:10) 5 (16:10) -- -- -- -- --
04-06-2019 19.4 (14:40) 10.1 (00:00) 14.8 10.28 (16:50) 4.72 (16:50) -- -- -- -- --
03-06-2019 24.2 (16:40) 14.4 (00:00) 19.3 8.06 (20:10) 3.89 (20:10) -- -- -- -- --
02-06-2019 27.7 (14:50) 10.7 (00:00) 19.2 7.5 (14:00) 3.33 (15:50) 0 0 0 0 0
01-06-2019 32.4 (16:20) 13.1 (00:00) 22.8 7.78 (16:50) 3.61 (17:10) 0 0 0 0 0
31-05-2019 36.1 (19:00) 11.8 (00:00) 23.9 6.67 (19:10) 3.33 (19:40) 0 0 0 0 0
30-05-2019 32 (17:10) 9.2 (00:00) 20.6 7.5 (20:30) 3.89 (20:10) 0 0 0 0 0
29-05-2019 25.6 (18:00) 7.4 (00:00) 16.5 7.78 (15:40) 4.17 (16:30) 0 0 0 0 0
28-05-2019 19.8 (15:40) 7.4 (00:00) 13.6 9.44 (18:10) 4.17 (18:20) 0 0 0 0 0
27-05-2019 20.7 (17:00) 10.4 (00:00) 15.6 8.61 (17:30) 3.89 (15:20) 0 0 0 0 0
26-05-2019 24.4 (17:00) 8.8 (00:00) 16.6 8.33 (19:30) 3.33 (19:10) 0 0 0 0 0

Gráficas

Temp. máximas Temp. mínimas Temp. medias Precipitaciones Rachas de viento máximas Velocidades máximas media en intervalos de 10 minutos

Datos horarios

Fecha y hora oficial Temperatura (ºC) Velocidad del viento (km/h) Dirección del viento Racha (km/h) Dirección de racha Precipitación (mm) Presión (hPa) Tendencia (hPa) Humedad (%)
2019-06-24 23:00:00 -- -- -- -- -- -- -- -- --
2019-06-24 22:00:00 -- -- -- -- -- -- -- -- --
2019-06-24 21:00:00 19.6 4 Noroeste 10 Oeste -- -- -- 65
2019-06-24 20:00:00 20.9 5 Noroeste 16 Noroeste -- -- -- 61
2019-06-24 19:00:00 21.8 6 Noroeste 16 Noroeste -- -- -- 57
2019-06-24 18:00:00 21.8 5 Oeste 13 Oeste -- -- -- 54
2019-06-24 17:00:00 21 5 Oeste 14 Oeste -- -- -- 63
2019-06-24 16:00:00 22.5 4 Sur 11 Sudeste -- -- -- 57
2019-06-24 15:00:00 20.6 2 Sur 10 Oeste -- -- -- 66
2019-06-24 14:00:00 19.2 3 Sudoeste 8 Oeste -- -- -- 73
2019-06-24 13:00:00 18.7 3 Oeste 8 Noroeste -- -- -- 74
2019-06-24 12:00:00 17.1 2 Sudoeste 6 Sur -- -- -- 87
2019-06-24 11:00:00 16.3 3 Sur 7 Sudeste -- -- -- 91
2019-06-24 10:00:00 15.3 0 Calma 5 Noroeste -- -- -- 92
2019-06-24 09:00:00 14.6 2 Noroeste 6 Noroeste -- -- -- 92
2019-06-24 08:00:00 14.3 5 Noroeste 11 Noroeste -- -- -- 92
2019-06-24 07:00:00 14.5 3 Noroeste 6 Noroeste -- -- -- 92
2019-06-24 06:00:00 14.8 0 Calma 7 Oeste -- -- -- 91
2019-06-24 05:00:00 14.9 4 Noroeste 9 Noroeste -- -- -- 90
2019-06-24 04:00:00 15.1 2 Oeste 10 Noroeste -- -- -- 89
2019-06-24 03:00:00 15.3 3 Noroeste 9 Noroeste -- -- -- 88
2019-06-24 02:00:00 15.5 2 Noroeste 11 Noroeste -- -- -- 87
2019-06-24 01:00:00 15.7 5 Oeste 11 Noroeste -- -- -- 87
2019-06-24 00:00:00 16.5 4 Noroeste 11 Noroeste -- -- -- 83
2019-06-23 23:00:00 17.6 4 Noroeste 10 Noroeste -- -- -- 78
2019-06-23 22:00:00 18.7 3 Oeste 10 Oeste -- -- -- 71
2019-06-23 21:00:00 20 6 Oeste 12 Noroeste -- -- -- 60
2019-06-23 20:00:00 21.1 3 Sudoeste 27 Oeste -- -- -- 56
2019-06-23 19:00:00 22.7 10 Oeste 26 Oeste -- -- -- 54
2019-06-23 18:00:00 23.8 6 Sudoeste 26 Oeste -- -- -- 56
2019-06-23 17:00:00 23.1 6 Sur 22 Sudoeste -- -- -- 60
2019-06-23 16:00:00 22.4 4 Sudoeste 20 Sudeste -- -- -- 65
2019-06-23 15:00:00 20.6 4 Sudoeste 21 Oeste -- -- -- 74
2019-06-23 14:00:00 19.3 3 Sur 12 Sudoeste -- -- -- 85
2019-06-23 13:00:00 16.4 3 Oeste 8 Sudoeste -- -- -- 91
2019-06-23 12:00:00 16.4 2 Sudoeste 12 Sudeste -- -- -- 91
2019-06-23 11:00:00 15.8 5 Sudeste 14 Oeste -- -- -- 94
2019-06-23 10:00:00 14.4 2 Sur 14 Sudeste -- -- -- 95
2019-06-23 09:00:00 13.6 0 Calma 6 Este -- -- -- 95
2019-06-23 08:00:00 13.5 2 Sudeste 6 Sudeste -- -- -- 95
2019-06-23 07:00:00 12.8 2 Sudoeste 9 Sudeste -- -- -- 95
2019-06-23 06:00:00 12.3 0 Calma 6 Oeste -- -- -- 95
2019-06-23 05:00:00 12.3 3 Sur 14 Sudeste -- -- -- 94
2019-06-23 04:00:00 12.7 5 Sudeste 26 Sur -- -- -- 92
2019-06-23 03:00:00 13.2 6 Sur 23 Oeste -- -- -- 88
2019-06-23 02:00:00 16.3 6 Sudoeste 23 Oeste -- -- -- 64
2019-06-23 01:00:00 17.8 3 Oeste 13 Oeste -- -- -- 61
2019-06-23 00:00:00 17.1 2 Oeste 5 Oeste -- -- -- 81
2019-06-22 23:00:00 17.9 0 Calma 9 Sudeste -- -- -- 81
2019-06-22 22:00:00 18.5 0 Calma 4 Sur -- -- -- 71
2019-06-22 21:00:00 20 0 Calma 6 Noroeste -- -- -- 65
2019-06-22 20:00:00 20 5 Oeste 12 Oeste -- -- -- 62
2019-06-22 19:00:00 20.5 6 Oeste 17 Noroeste -- -- -- 66
2019-06-22 18:00:00 22.6 8 Oeste 27 Sudoeste -- -- -- 58
2019-06-22 17:00:00 24.5 6 Sudoeste 25 Oeste -- -- -- 48
2019-06-22 16:00:00 24.4 11 Oeste 29 Oeste -- -- -- 48
2019-06-22 15:00:00 26.4 4 Sur 19 Oeste -- -- -- 47
2019-06-22 14:00:00 25.4 4 Sudoeste 15 Sur -- -- -- 50
2019-06-22 13:00:00 23.9 3 Sur 12 Noroeste -- -- -- 52
2019-06-22 12:00:00 20 2 Sudeste 9 Sudeste -- -- -- 71
2019-06-22 11:00:00 16.3 3 Sudeste 6 Sur -- -- -- 80
2019-06-22 10:00:00 13.9 0 Calma 9 Sudeste -- -- -- 88
2019-06-22 09:00:00 11.9 5 Sudeste 10 Sudeste -- -- -- 95
2019-06-22 08:00:00 11.4 3 Sudeste 7 Este -- -- -- 96
2019-06-22 07:00:00 11.7 5 Sudeste 11 Este -- -- -- 96
2019-06-22 06:00:00 12.2 2 Sudeste 4 Sudeste -- -- -- 95
2019-06-22 05:00:00 12.4 0 Calma 5 Noroeste -- -- -- 95
2019-06-22 04:00:00 12.5 0 Calma 6 Este -- -- -- 94
2019-06-22 03:00:00 12.5 0 Calma 8 Norte -- -- -- 94
2019-06-22 02:00:00 12.7 4 Noroeste 11 Noroeste -- -- -- 93
2019-06-22 01:00:00 12.9 4 Norte 11 Noroeste -- -- -- 92
2019-06-22 00:00:00 13 4 Noroeste 13 Norte -- -- -- 89
2019-06-21 23:00:00 13.9 4 Noroeste 17 Noroeste -- -- -- 85
2019-06-21 22:00:00 15.5 9 Norte 19 Norte -- -- -- 80
2019-06-21 21:00:00 18 9 Norte 20 Nordeste -- -- -- 71
2019-06-21 20:00:00 20.5 10 Nordeste 20 Nordeste -- -- -- 60
2019-06-21 19:00:00 21.7 12 Nordeste 23 Nordeste -- -- -- 56
2019-06-21 18:00:00 21.6 11 Nordeste 25 Norte -- -- -- 56
2019-06-21 17:00:00 22.8 9 Nordeste 20 Este -- -- -- 49
2019-06-21 16:00:00 23 6 Noroeste 18 Noroeste -- -- -- 47
2019-06-21 15:00:00 21 6 Norte 17 Noroeste -- -- -- 55
2019-06-21 14:00:00 20.7 6 Noroeste 17 Norte -- -- -- 61
2019-06-21 13:00:00 17.9 8 Norte 21 Norte -- -- -- 68
2019-06-21 12:00:00 15.4 8 Norte 23 Noroeste -- -- -- 76
2019-06-21 11:00:00 14.1 6 Norte 18 Norte -- -- -- 82
2019-06-21 10:00:00 13.9 8 Nordeste 19 Nordeste -- -- -- 83
2019-06-21 09:00:00 12.9 9 Nordeste 18 Nordeste -- -- -- 85
2019-06-21 08:00:00 12.6 5 Nordeste 18 Nordeste -- -- -- 90
2019-06-21 07:00:00 12.6 8 Norte 20 Norte -- -- -- 90
2019-06-21 06:00:00 12.6 4 Norte 11 Norte -- -- -- 91
2019-06-21 05:00:00 12 2 Norte 9 Noroeste -- -- -- 93
2019-06-21 04:00:00 12 3 Norte 14 Norte -- -- -- 91
2019-06-21 03:00:00 12.2 5 Norte 14 Nordeste -- -- -- 90
2019-06-21 02:00:00 12 4 Norte 13 Norte -- -- -- 90
2019-06-21 01:00:00 12.4 4 Norte 10 Noroeste -- -- -- 88
2019-06-21 00:00:00 12.5 3 Norte 15 Nordeste -- -- -- 87
2019-06-20 23:00:00 13 6 Norte 20 Norte -- -- -- 83
2019-06-20 22:00:00 14.3 9 Nordeste 21 Nordeste -- -- -- 77
2019-06-20 21:00:00 15.3 8 Nordeste 23 Nordeste -- -- -- 74
2019-06-20 20:00:00 15.1 8 Nordeste 26 Nordeste -- -- -- 77
2019-06-20 19:00:00 15.9 10 Nordeste 30 Nordeste -- -- -- 74
2019-06-20 18:00:00 17.2 7 Norte 25 Norte -- -- -- 70
2019-06-20 17:00:00 17.5 10 Nordeste 28 Norte -- -- -- 70
2019-06-20 16:00:00 17.6 9 Norte 25 Norte -- -- -- 72
2019-06-20 15:00:00 17.9 12 Norte 26 Norte -- -- -- 70
2019-06-20 14:00:00 17.5 9 Norte 24 Nordeste -- -- -- 71
2019-06-20 13:00:00 17.3 8 Norte 25 Nordeste -- -- -- 73
2019-06-20 12:00:00 17.4 10 Nordeste 24 Norte -- -- -- 72
2019-06-20 11:00:00 16.1 10 Nordeste 21 Norte -- -- -- 77
2019-06-20 10:00:00 14.8 7 Norte 15 Norte -- -- -- 85
2019-06-20 09:00:00 14 4 Nordeste 14 Norte -- -- -- 90
2019-06-20 08:00:00 13.5 3 Norte 9 Noroeste -- -- -- 92
2019-06-20 07:00:00 13.3 3 Noroeste 6 Noroeste -- -- -- 93
2019-06-20 06:00:00 13.3 3 Nordeste 13 Nordeste -- -- -- 92
2019-06-20 05:00:00 13.7 3 Norte 10 Norte -- -- -- 92
2019-06-20 04:00:00 13.6 3 Noroeste 12 Norte -- -- -- 94
2019-06-20 03:00:00 13.9 2 Noroeste 6 Noroeste -- -- -- 94
2019-06-20 02:00:00 14 2 Noroeste 8 Norte -- -- -- 93
2019-06-20 01:00:00 14.2 3 Norte 7 Noroeste -- -- -- 92
2019-06-20 00:00:00 14.4 2 Noroeste 7 Noroeste -- -- -- 92
2019-06-19 23:00:00 14.4 3 Nordeste 9 Nordeste -- -- -- 91
2019-06-19 22:00:00 14.5 4 Norte 10 Norte -- -- -- 90
2019-06-19 21:00:00 15 4 Norte 12 Norte -- -- -- 88
2019-06-19 20:00:00 15.5 4 Noroeste 22 Noroeste -- -- -- 90
2019-06-19 19:00:00 17.7 8 Oeste 18 Oeste -- -- -- 73
2019-06-19 18:00:00 16.9 5 Sudoeste 22 Oeste -- -- -- 81
2019-06-19 17:00:00 18.4 5 Oeste 17 Oeste -- -- -- 72
2019-06-19 16:00:00 18.5 6 Oeste 14 Noroeste -- -- -- 72
2019-06-19 15:00:00 17.8 7 Oeste 14 Oeste -- -- -- 72
2019-06-19 14:00:00 17.5 3 Sudoeste 12 Sur -- -- -- 74
2019-06-19 13:00:00 18 4 Sudoeste 14 Sur -- -- -- 70
2019-06-19 12:00:00 -- 5 Sudoeste 14 Oeste -- -- -- --
2019-06-19 11:00:00 16.2 4 Sudoeste 12 Oeste -- -- -- 77
2019-06-19 10:00:00 15.3 0 Calma 15 Oeste -- -- -- 82
2019-06-19 09:00:00 16.1 2 Sudoeste 7 Sudoeste -- -- -- 77
2019-06-19 08:00:00 14.9 0 Calma 5 Sur -- -- -- 86
2019-06-19 07:00:00 12.5 0 Calma 7 Sudeste -- -- -- 92
2019-06-19 06:00:00 13 0 Calma 10 Sur -- -- -- 91
2019-06-19 05:00:00 13.1 3 Sur 8 Sudeste -- -- -- 90
2019-06-19 04:00:00 13 0 Calma 10 Sur -- -- -- 89
2019-06-19 03:00:00 12.7 2 Sur 11 Sudeste -- -- -- 89
2019-06-19 02:00:00 13.3 3 Sur 11 Sudeste -- -- -- 86
2019-06-19 01:00:00 14.2 4 Sudoeste 15 Sur -- -- -- 82
2019-06-19 00:00:00 14.5 4 Sur 12 Sur -- -- -- 81
2019-06-18 23:00:00 15.3 3 Sudoeste 14 Oeste -- -- -- 78
2019-06-18 22:00:00 16.2 4 Sur 18 Oeste -- -- -- 75
2019-06-18 21:00:00 17.1 3 Sudoeste 17 Oeste -- -- -- 78
2019-06-18 20:00:00 17.5 6 Sudoeste 21 Oeste -- -- -- 76
2019-06-18 19:00:00 18.2 6 Sudoeste 23 Sur -- -- -- 81
2019-06-18 18:00:00 16.5 4 Sudoeste 22 Sur -- -- -- 89
2019-06-18 17:00:00 17.3 5 Sudoeste 30 Sudoeste -- -- -- 82
2019-06-18 16:00:00 20.2 8 Sudoeste 28 Sur -- -- -- 59
2019-06-18 15:00:00 19.5 5 Sudoeste 26 Sudeste -- -- -- 67
2019-06-18 14:00:00 18.6 3 Sudoeste 17 Sur -- -- -- 72
2019-06-18 13:00:00 19.2 6 Sur 17 Sur -- -- -- 74
2019-06-18 12:00:00 16.9 7 Sudeste 15 Sudeste -- -- -- 81
2019-06-18 11:00:00 14.2 5 Sudeste 12 Sudeste -- -- -- 92
2019-06-18 10:00:00 13.2 2 Sudoeste 10 Este -- -- -- 95
2019-06-18 09:00:00 12.7 3 Sur 14 Sudeste -- -- -- 96
2019-06-18 08:00:00 12.8 4 Sudeste 8 Sudeste -- -- -- 96
2019-06-18 07:00:00 12.1 3 Oeste 11 Este -- -- -- 95
2019-06-18 06:00:00 11.9 3 Sudeste 9 Sudeste -- -- -- 94
2019-06-18 05:00:00 12.4 4 Sudeste 6 Sudeste -- -- -- 93
2019-06-18 04:00:00 13.1 0 Calma 3 Oeste -- -- -- 91
2019-06-18 03:00:00 14.1 0 Calma 8 Norte -- -- -- 88
2019-06-18 02:00:00 15 0 Calma 12 Norte -- -- -- 86
2019-06-18 01:00:00 15.9 4 Noroeste 15 Oeste -- -- -- 84
2019-06-18 00:00:00 16.7 6 Noroeste 13 Noroeste -- -- -- 78
2019-06-17 23:00:00 18.1 3 Noroeste 7 Este -- -- -- 78
2019-06-17 22:00:00 20.2 5 Sudeste 9 Sudeste -- -- -- 63
2019-06-17 21:00:00 22.1 4 Sudeste 10 Sudeste -- -- -- 55
2019-06-17 20:00:00 22.4 2 Sudeste 12 Oeste -- -- -- 56
2019-06-17 19:00:00 22.7 4 Oeste 11 Oeste -- -- -- 59
2019-06-17 18:00:00 22.2 5 Oeste 10 Noroeste -- -- -- 62
2019-06-17 17:00:00 22.5 3 Noroeste 10 Norte -- -- -- 64
2019-06-17 16:00:00 21.1 6 Norte 12 Noroeste -- -- -- 65
2019-06-17 15:00:00 20.9 5 Noroeste 14 Noroeste -- -- -- 66
2019-06-17 14:00:00 21.7 2 Noroeste 8 Este -- -- -- 61
2019-06-17 13:00:00 18.4 3 Norte 10 Oeste -- -- -- 71
2019-06-17 12:00:00 15.2 3 Oeste 8 Sudeste -- -- -- 84
2019-06-17 11:00:00 14.1 3 Sudeste 7 Este -- -- -- 86
2019-06-17 10:00:00 12.8 2 Nordeste 8 Este -- -- -- 92
2019-06-17 09:00:00 12.4 4 Sudeste 7 Este -- -- -- 94
2019-06-17 08:00:00 12.2 3 Sudeste 8 Sudeste -- -- -- 93
2019-06-17 07:00:00 12.3 4 Sudeste 7 Sur -- -- -- 92
2019-06-17 06:00:00 12.7 3 Este 8 Sudeste -- -- -- 91
2019-06-17 05:00:00 13 2 Nordeste 9 Norte -- -- -- 90
2019-06-17 04:00:00 13.2 2 Norte 13 Norte -- -- -- 90
2019-06-17 03:00:00 13.1 5 Norte 16 Norte -- -- -- 90
2019-06-17 02:00:00 13.3 6 Norte 16 Norte -- -- -- 89
2019-06-17 01:00:00 13.4 4 Norte 15 Norte -- -- -- 88
2019-06-17 00:00:00 13.5 5 Norte 18 Norte -- -- -- 87
2019-06-16 23:00:00 13.9 7 Norte 19 Este -- -- -- 85
2019-06-16 22:00:00 15.6 6 Nordeste 28 Nordeste -- -- -- 77
2019-06-16 21:00:00 17.6 10 Norte 24 Noroeste -- -- -- 70
2019-06-16 20:00:00 19.3 11 Norte 31 Norte -- -- -- 63
2019-06-16 19:00:00 21.8 14 Nordeste 35 Norte -- -- -- 56
2019-06-16 18:00:00 26.8 7 Noroeste 18 Nordeste -- -- -- 35
2019-06-16 17:00:00 26.3 4 Norte 17 Noroeste -- -- -- 36
2019-06-16 16:00:00 25.2 5 Noroeste 15 Noroeste -- -- -- 40
2019-06-16 15:00:00 23.4 5 Noroeste 11 Noroeste -- -- -- 42
2019-06-16 14:00:00 21.4 3 Noroeste 11 Oeste -- -- -- 45
2019-06-16 13:00:00 18.4 4 Noroeste 9 Oeste -- -- -- 60
2019-06-16 12:00:00 14.9 3 Oeste 8 Sudeste -- -- -- 74
2019-06-16 11:00:00 12.2 2 Noroeste 7 Noroeste -- -- -- 85
2019-06-16 10:00:00 9.2 3 Noroeste 6 Oeste -- -- -- 95
2019-06-16 09:00:00 8 3 Oeste 5 Oeste -- -- -- 97
2019-06-16 08:00:00 7.8 0 Calma 4 Sudeste -- -- -- 96
2019-06-16 07:00:00 7.5 0 Calma 4 Sur -- -- -- 95
2019-06-16 06:00:00 6.8 0 Calma 3 Noroeste -- -- -- 94
2019-06-16 05:00:00 6.9 2 Noroeste 5 Noroeste -- -- -- 94
2019-06-16 04:00:00 7.3 3 Noroeste 6 Noroeste -- -- -- 93
2019-06-16 03:00:00 7.9 3 Noroeste 8 Noroeste -- -- -- 93
2019-06-16 02:00:00 8.8 3 Noroeste 8 Noroeste -- -- -- 89
2019-06-16 01:00:00 10 2 Noroeste 6 Oeste -- -- -- 87
2019-06-16 00:00:00 11.6 2 Noroeste 9 Norte -- -- -- 82
2019-06-15 23:00:00 13.8 4 Norte 11 Norte -- -- -- 74
2019-06-15 22:00:00 14.8 5 Noroeste 12 Noroeste -- -- -- 64
2019-06-15 21:00:00 16.5 4 Noroeste 15 Oeste -- -- -- 58
2019-06-15 20:00:00 18.4 7 Oeste 19 Oeste -- -- -- 55
2019-06-15 19:00:00 18.6 10 Oeste 23 Oeste -- -- -- 53
2019-06-15 18:00:00 17.1 10 Oeste 22 Oeste -- -- -- 56
2019-06-15 17:00:00 17.6 7 Noroeste 23 Oeste -- -- -- 55
2019-06-15 16:00:00 16.8 9 Oeste 22 Oeste -- -- -- 52
2019-06-15 15:00:00 16.5 7 Oeste 16 Sudoeste -- -- -- 52
2019-06-15 14:00:00 16.6 10 Oeste 20 Oeste -- -- -- 52
2019-06-15 13:00:00 16.2 5 Sudoeste 15 Noroeste -- -- -- 56
2019-06-15 12:00:00 15.2 7 Oeste 19 Oeste -- -- -- 57
2019-06-15 11:00:00 15.1 9 Sudoeste 24 Oeste -- -- -- 57
2019-06-15 10:00:00 14.7 4 Oeste 16 Oeste -- -- -- 64
2019-06-15 09:00:00 12.4 8 Oeste 16 Oeste -- -- -- 76
2019-06-15 08:00:00 11.1 0 Calma 5 Sudeste -- -- -- 91
2019-06-15 07:00:00 10 0 Calma 5 Sur -- -- -- 91
2019-06-15 06:00:00 10.4 0 Calma 13 Oeste -- -- -- 90
2019-06-15 05:00:00 11.4 4 Sudoeste 9 Oeste -- -- -- 85
2019-06-15 04:00:00 11.6 3 Oeste 11 Oeste -- -- -- 84
2019-06-15 03:00:00 11.6 0 Calma 5 Sudeste -- -- -- 84
2019-06-15 02:00:00 11.3 2 Sur 5 Sudeste -- -- -- 86
2019-06-15 01:00:00 11.5 0 Calma 4 Sudeste -- -- -- 86
2019-06-15 00:00:00 11.5 2 Oeste 8 Oeste -- -- -- 85
2019-06-14 23:00:00 12.5 3 Noroeste 13 Oeste -- -- -- 80
2019-06-14 22:00:00 12.7 6 Noroeste 16 Norte -- -- -- 78
2019-06-14 21:00:00 13.3 7 Noroeste 23 Noroeste -- -- -- 73
2019-06-14 20:00:00 15.8 9 Noroeste 24 Oeste -- -- -- 65
2019-06-14 19:00:00 17.7 10 Oeste 23 Oeste -- -- -- 55
2019-06-14 18:00:00 18.6 8 Noroeste 18 Oeste -- -- -- 47
2019-06-14 17:00:00 17.3 7 Oeste 18 Sudoeste -- -- -- 50
2019-06-14 16:00:00 18.4 8 Oeste 16 Oeste -- -- -- 47
2019-06-14 15:00:00 18 5 Oeste 13 Noroeste -- -- -- 50
2019-06-14 14:00:00 15.5 9 Oeste 17 Oeste -- -- -- 58
2019-06-14 13:00:00 16.9 4 Oeste 9 Noroeste -- -- -- 46
2019-06-14 12:00:00 14.7 3 Sudeste 10 Sudeste -- -- -- 63
2019-06-14 11:00:00 10.5 3 Este 6 Este -- -- -- 84
2019-06-14 10:00:00 7.9 3 Este 6 Sudeste -- -- -- 94
2019-06-14 09:00:00 7.1 0 Calma 4 Sudeste -- -- -- 96
2019-06-14 08:00:00 6.3 0 Calma 3 Sudeste -- -- -- 96
2019-06-14 07:00:00 5.9 2 Sur 5 Sudeste -- -- -- 96
2019-06-14 06:00:00 5.3 0 Calma 4 Noroeste -- -- -- 96
2019-06-14 05:00:00 5.3 2 Noroeste 5 Norte -- -- -- 94
2019-06-14 04:00:00 6 2 Noroeste 7 Noroeste -- -- -- 95
2019-06-14 03:00:00 6.8 3 Noroeste 7 Noroeste -- -- -- 93
2019-06-14 02:00:00 7.8 3 Noroeste 7 Noroeste -- -- -- 91
2019-06-14 01:00:00 8.8 3 Noroeste 8 Nordeste -- -- -- 89
2019-06-14 00:00:00 10.6 2 Norte 9 Nordeste -- -- -- 83
2019-06-13 23:00:00 11.6 3 Norte 13 Nordeste -- -- -- 80
2019-06-13 22:00:00 13.1 7 Norte 18 Noroeste -- -- -- 74
2019-06-13 21:00:00 14.3 6 Noroeste 19 Noroeste -- -- -- 65
2019-06-13 20:00:00 14.7 8 Noroeste 22 Noroeste -- -- -- 62
2019-06-13 19:00:00 16.9 5 Noroeste 14 Oeste -- -- -- 48
2019-06-13 18:00:00 16.9 5 Noroeste 15 Oeste -- -- -- 47
2019-06-13 17:00:00 18 7 Oeste 18 Oeste -- -- -- 44
2019-06-13 16:00:00 18.1 3 Noroeste 17 Oeste -- -- -- 40
2019-06-13 15:00:00 17.2 5 Oeste 12 Oeste -- -- -- 45
2019-06-13 14:00:00 16.6 3 Noroeste 14 Noroeste -- -- -- 51
2019-06-13 13:00:00 15.8 4 Sudoeste 11 Oeste -- -- -- 52
2019-06-13 12:00:00 14.2 4 Sudeste 9 Sudeste -- -- -- 67
2019-06-13 11:00:00 11.4 0 Calma 8 Sur -- -- -- 77
2019-06-13 10:00:00 11 3 Sur 6 Sur -- -- -- 81
2019-06-13 09:00:00 8.8 3 Sudeste 8 Sudeste -- -- -- 88
2019-06-13 08:00:00 7.9 4 Sudeste 8 Sudeste -- -- -- 91
2019-06-13 07:00:00 8.3 0 Calma 7 Noroeste -- -- -- 92
2019-06-13 06:00:00 8 0 Calma 7 Noroeste -- -- -- 93
2019-06-13 05:00:00 8.1 3 Noroeste 11 Norte -- -- -- 91
2019-06-13 04:00:00 7.1 3 Noroeste 6 Noroeste -- -- -- 93
2019-06-13 03:00:00 7.5 3 Noroeste 10 Nordeste -- -- -- 91
2019-06-13 02:00:00 9.1 0 Calma 9 Noroeste -- -- -- 85
2019-06-13 01:00:00 9.9 4 Norte 12 Nordeste -- -- -- 82
2019-06-13 00:00:00 10.7 4 Norte 12 Norte -- -- -- 78
2019-06-12 23:00:00 11.1 5 Nordeste 14 Nordeste -- -- -- 77
2019-06-12 22:00:00 12 8 Nordeste 19 Norte -- -- -- 72
2019-06-12 21:00:00 13.5 8 Norte 21 Norte -- -- -- 66
2019-06-12 20:00:00 13.5 8 Norte 21 Noroeste -- -- -- 67
2019-06-12 19:00:00 15 10 Norte 22 Noroeste -- -- -- 58
2019-06-12 18:00:00 19 5 Noroeste 18 Noroeste -- -- -- 40
2019-06-12 17:00:00 16.9 5 Noroeste 24 Noroeste -- -- -- 49
2019-06-12 16:00:00 17.8 8 Noroeste 19 Oeste -- -- -- 45
2019-06-12 15:00:00 17.1 6 Oeste 14 Oeste -- -- -- 38
2019-06-12 14:00:00 15.7 5 Noroeste 16 Oeste -- -- -- 45
2019-06-12 13:00:00 14.3 2 Norte 11 Oeste -- -- -- 54
2019-06-12 12:00:00 13.9 3 Oeste 11 Oeste -- -- -- 63
2019-06-12 11:00:00 10.6 0 Calma 6 Sur -- -- -- 85
2019-06-12 10:00:00 8.5 3 Sudeste 9 Sudeste -- -- -- 94
2019-06-12 09:00:00 7.8 5 Sudeste 9 Sudeste -- -- -- 94
2019-06-12 08:00:00 7.4 0 Calma 7 Sudeste -- -- -- 95
2019-06-12 07:00:00 6.8 2 Sudeste 7 Sudeste -- -- -- 94
2019-06-12 06:00:00 7.5 3 Sudeste 6 Sudeste -- -- -- 93
2019-06-12 05:00:00 7.6 0 Calma 5 Noroeste -- -- -- 92
2019-06-12 04:00:00 7.6 0 Calma 5 Noroeste -- -- -- 92
2019-06-12 03:00:00 7.3 0 Calma 4 Oeste -- -- -- 92
2019-06-12 02:00:00 8.3 4 Oeste 13 Norte -- -- -- 91
2019-06-12 01:00:00 9.1 4 Noroeste 13 Noroeste -- -- -- 89
2019-06-12 00:00:00 10 5 Noroeste 18 Norte -- -- -- 83
2019-06-11 23:00:00 10.7 8 Noroeste 18 Noroeste -- -- -- 75
2019-06-11 22:00:00 12 7 Norte 21 Nordeste -- -- -- 66
2019-06-11 21:00:00 13.9 9 Norte 23 Norte -- -- -- 58
2019-06-11 20:00:00 14.8 7 Norte 23 Nordeste -- -- -- 55
2019-06-11 19:00:00 15.3 8 Norte 22 Norte -- -- -- 54
2019-06-11 18:00:00 15.5 13 Norte 28 Norte -- -- -- 52
2019-06-11 17:00:00 15.8 9 Norte 28 Norte -- -- -- 55
2019-06-11 16:00:00 15.3 11 Norte 25 Norte -- -- -- 55
2019-06-11 15:00:00 14.8 9 Norte 24 Nordeste -- -- -- 58
2019-06-11 14:00:00 15.4 9 Norte 27 Nordeste -- -- -- 53
2019-06-11 13:00:00 15 9 Norte 27 Nordeste -- -- -- 48
2019-06-11 12:00:00 14 9 Norte 22 Noroeste -- -- -- 58
2019-06-11 11:00:00 12.8 6 Noroeste 21 Nordeste -- -- -- 67
2019-06-11 10:00:00 12.7 9 Nordeste 22 Este -- -- -- 65
2019-06-11 09:00:00 11.6 9 Norte 25 Norte -- -- -- 72
2019-06-11 08:00:00 9.7 3 Noroeste 10 Noroeste -- -- -- 90
2019-06-11 07:00:00 9 2 Noroeste 14 Noroeste -- -- -- 89
2019-06-11 06:00:00 8.9 5 Nordeste 28 Norte -- -- -- 88
2019-06-11 05:00:00 9.7 4 Oeste 9 Noroeste -- -- -- 87
2019-06-11 04:00:00 10.1 4 Norte 12 Nordeste -- -- -- 82
2019-06-11 03:00:00 10.1 5 Norte 16 Norte -- -- -- 81
2019-06-11 02:00:00 10.8 5 Norte 11 Nordeste -- -- -- 82
2019-06-11 01:00:00 10.8 3 Noroeste 14 Nordeste -- -- -- 83
2019-06-11 00:00:00 11 6 Norte 14 Norte -- -- -- 80
2019-06-10 23:00:00 11.1 4 Norte 16 Norte -- -- -- 79
2019-06-10 22:00:00 11.7 7 Norte 20 Norte -- -- -- 79
2019-06-10 21:00:00 13 9 Nordeste 22 Norte -- -- -- 72
2019-06-10 20:00:00 15.5 9 Norte 22 Norte -- -- -- 63
2019-06-10 19:00:00 18.1 8 Noroeste 21 Noroeste -- -- -- 45
2019-06-10 18:00:00 18.1 7 Norte 17 Noroeste -- -- -- 44
2019-06-10 17:00:00 17.6 6 Noroeste 15 Norte -- -- -- 47
2019-06-10 16:00:00 19 7 Oeste 18 Oeste -- -- -- 42
2019-06-10 15:00:00 17.1 3 Norte 15 Nordeste -- -- -- 49
2019-06-10 14:00:00 15.4 6 Oeste 14 Noroeste -- -- -- 54
2019-06-10 13:00:00 15.6 4 Norte 14 Nordeste -- -- -- 52
2019-06-10 12:00:00 13.9 4 Noroeste 10 Noroeste -- -- -- 57
2019-06-10 11:00:00 12.3 3 Oeste 6 Noroeste -- -- -- 70
2019-06-10 10:00:00 10.9 3 Oeste 8 Oeste -- -- -- 78
2019-06-10 09:00:00 9.6 3 Noroeste 8 Oeste -- -- -- 85
2019-06-10 08:00:00 8.9 3 Noroeste 8 Noroeste -- -- -- 89
2019-06-10 07:00:00 8.9 4 Noroeste 10 Oeste -- -- -- 90
2019-06-10 06:00:00 9 4 Norte 9 Nordeste -- -- -- 89
2019-06-10 05:00:00 9 2 Noroeste 9 Noroeste -- -- -- 91
2019-06-10 04:00:00 8.9 3 Noroeste 10 Noroeste -- -- -- 93
2019-06-10 03:00:00 9 3 Noroeste 9 Norte -- -- -- 93
2019-06-10 02:00:00 9.1 2 Noroeste 14 Norte -- -- -- 93
2019-06-10 01:00:00 9.6 4 Norte 11 Norte 0 -- -- 90
2019-06-10 00:00:00 10.4 4 Nordeste 14 Norte 0 -- -- 87
2019-06-09 23:00:00 11.2 5 Norte 14 Nordeste 0 -- -- 82
2019-06-09 22:00:00 12.6 6 Norte 14 Norte 0 -- -- 75
2019-06-09 21:00:00 13.6 6 Nordeste 20 Nordeste 0 -- -- 70
2019-06-09 20:00:00 14.1 10 Nordeste 21 Nordeste 0 -- -- 71
2019-06-09 19:00:00 15.3 8 Nordeste 21 Norte 0 -- -- 66
2019-06-09 18:00:00 15.6 6 Norte 24 Norte 0 -- -- 65
2019-06-09 17:00:00 16.1 8 Norte 25 Noroeste 0 -- -- 65
2019-06-09 16:00:00 16.4 9 Norte 21 Norte 0 -- -- 64
2019-06-09 15:00:00 14.9 10 Norte 24 Norte 0 -- -- 67
2019-06-09 14:00:00 14.9 8 Norte 21 Norte 0 -- -- 72
2019-06-09 13:00:00 13.3 9 Nordeste 18 Nordeste 0 -- -- 78
2019-06-09 12:00:00 13 7 Norte 15 Norte 0 -- -- 80
2019-06-09 11:00:00 12.6 0 Calma 7 Este 0 -- -- 79
2019-06-09 10:00:00 11.7 3 Este 6 Sudeste 0 -- -- 86
2019-06-09 09:00:00 10.2 0 Calma 4 Noroeste 0 -- -- 91
2019-06-09 08:00:00 9.7 0 Calma 6 Noroeste 0 -- -- 93
2019-06-09 07:00:00 9.5 0 Calma 5 Norte 0 -- -- 94
2019-06-09 06:00:00 9.4 2 Oeste 7 Noroeste 0 -- -- 94
2019-06-09 05:00:00 9.3 2 Noroeste 6 Noroeste 0 -- -- 94
2019-06-09 04:00:00 9.1 4 Oeste 8 Noroeste 0 -- -- 95
2019-06-09 03:00:00 8.8 3 Noroeste 9 Noroeste 0 -- -- 94
2019-06-09 02:00:00 9.2 3 Noroeste 12 Noroeste 0 -- -- 91
2019-06-09 01:00:00 9.8 3 Noroeste 12 Norte 0 -- -- 88
2019-06-09 00:00:00 10.4 4 Noroeste 13 Nordeste 0 -- -- 85
2019-06-08 23:00:00 10.7 5 Norte 17 Nordeste 0 -- -- 83
2019-06-08 22:00:00 11.5 6 Norte 18 Norte 0 -- -- 77
2019-06-08 21:00:00 12.6 6 Nordeste 22 Norte 0 -- -- 71
2019-06-08 20:00:00 14.3 9 Norte 24 Norte 0 -- -- 64
2019-06-08 19:00:00 14.4 13 Nordeste 26 Nordeste 0 -- -- 63
2019-06-08 18:00:00 15.5 8 Nordeste 18 Este 0 -- -- 62
2019-06-08 17:00:00 16 6 Noroeste 19 Noroeste 0 -- -- 50
2019-06-08 16:00:00 18.2 5 Norte 16 Noroeste 0 -- -- 48
2019-06-08 15:00:00 18 4 Noroeste 15 Norte 0 -- -- 50
2019-06-08 14:00:00 16.1 5 Noroeste 19 Norte 0 -- -- 58
2019-06-08 13:00:00 15.3 6 Norte 15 Norte 0 -- -- 64
2019-06-08 12:00:00 13.8 5 Noroeste 15 Norte 0 -- -- 69
2019-06-08 11:00:00 11 3 Noroeste 6 Oeste 0 -- -- 83
2019-06-08 10:00:00 8.2 2 Noroeste 5 Sudeste 0 -- -- 94
2019-06-08 09:00:00 6.3 0 Calma 5 Sudeste 0 -- -- 97
2019-06-08 08:00:00 5.6 0 Calma 5 Sudeste 0 -- -- 97
2019-06-08 07:00:00 5.5 0 Calma 6 Sudeste 0 -- -- 97
2019-06-08 06:00:00 5.6 0 Calma 6 Sudeste 0 -- -- 96
2019-06-08 05:00:00 5.9 0 Calma 2 Sur 0 -- -- 96
2019-06-08 04:00:00 6.1 0 Calma 3 Noroeste 0 -- -- 96
2019-06-08 03:00:00 7.2 0 Calma 5 Sudeste 0 -- -- 94
2019-06-08 02:00:00 8.2 0 Calma 6 Oeste 0 -- -- 92
2019-06-08 01:00:00 9.2 0 Calma 6 Noroeste 0 -- -- 91
2019-06-08 00:00:00 9.8 0 Calma 4 Sudeste 0 -- -- 86
2019-06-07 23:00:00 10.6 2 Sudeste 5 Noroeste 0 -- -- 82
2019-06-07 22:00:00 11.5 3 Norte 13 Norte 0 -- -- 74
2019-06-07 21:00:00 13.2 5 Noroeste 29 Oeste 0 -- -- 66
2019-06-07 20:00:00 15.1 6 Noroeste 27 Noroeste 0 -- -- 53
2019-06-07 19:00:00 14.8 15 Oeste 31 Noroeste 0 -- -- 53
2019-06-07 18:00:00 15.5 14 Oeste 32 Oeste 0 -- -- 59
2019-06-07 17:00:00 12.2 11 Oeste 25 Sudoeste 0 -- -- 75
2019-06-07 16:00:00 12.6 12 Oeste 30 Oeste 0 -- -- 68
2019-06-07 15:00:00 10.2 6 Oeste 34 Oeste 0 -- -- 86
2019-06-07 14:00:00 11.7 8 Oeste 31 Oeste 0 -- -- 74
2019-06-07 13:00:00 11 8 Oeste 32 Oeste 0 -- -- 79
2019-06-07 12:00:00 12.2 7 Oeste 29 Oeste 0 -- -- 68
2019-06-07 11:00:00 12 12 Oeste 27 Oeste 0 -- -- 73
2019-06-07 10:00:00 9.7 6 Oeste 15 Oeste 0 -- -- 84
2019-06-07 09:00:00 8.7 3 Sudoeste 14 Oeste 0 -- -- 90
2019-06-07 08:00:00 8.5 5 Oeste 25 Oeste 0 -- -- 86
2019-06-07 07:00:00 7.5 6 Oeste 22 Oeste 0 -- -- 91
2019-06-07 06:00:00 7.5 9 Oeste 19 Oeste 0 -- -- 90
2019-06-07 05:00:00 7.5 5 Oeste 18 Oeste 0 -- -- 91
2019-06-07 04:00:00 7.3 8 Oeste 30 Oeste 0 -- -- 88
2019-06-07 03:00:00 7.6 10 Oeste 26 Oeste 0 -- -- 89
2019-06-07 02:00:00 7.1 9 Sudoeste 28 Oeste 0 -- -- 89
2019-06-07 01:00:00 7 10 Oeste 32 Oeste 0 -- -- 91
2019-06-07 00:00:00 9 13 Oeste 32 Oeste 0 -- -- 84
2019-06-06 23:00:00 9.1 10 Oeste 28 Oeste 0 -- -- 85
2019-06-06 22:00:00 9.6 17 Oeste 43 Oeste 0 -- -- 82
2019-06-06 21:00:00 10.5 15 Oeste 52 Oeste 0 -- -- 80
2019-06-06 20:00:00 11.3 19 Oeste 51 Oeste 0 -- -- 78
2019-06-06 19:00:00 13.2 14 Sudoeste 58 Oeste 0 -- -- 74
2019-06-06 18:00:00 12.5 19 Sudoeste 55 Oeste 0 -- -- 84
2019-06-06 17:00:00 11.9 8 Sudoeste 41 Sur 0 -- -- 91
2019-06-06 16:00:00 11.3 13 Sur 41 Sur 0 -- -- 90
2019-06-06 15:00:00 11.9 11 Sur 41 Sudoeste 0 -- -- 83
2019-06-06 14:00:00 14.3 10 Sur 41 Sudeste 0 -- -- 65
2019-06-06 13:00:00 14.9 16 Sur 45 Sudeste 0 -- -- 59
2019-06-06 12:00:00 12.8 11 Sur 30 Sur 0 -- -- 65
2019-06-06 11:00:00 11.4 10 Sur 24 Sur 0 -- -- 71
2019-06-06 10:00:00 10.7 5 Sur 14 Sur 0 -- -- 78
2019-06-06 09:00:00 10.5 5 Sur 15 Sur 0 -- -- 77
2019-06-06 08:00:00 8.9 5 Sur 13 Sudeste 0 -- -- 85
2019-06-06 07:00:00 8.5 5 Sur 13 Sur 0 -- -- 86
2019-06-06 06:00:00 8.4 5 Sur 12 Sudeste 0 -- -- 86
2019-06-06 05:00:00 8.2 4 Sudeste 10 Sudeste 0 -- -- 89
2019-06-06 04:00:00 8 5 Sudeste 11 Sur 0 -- -- 89
2019-06-06 03:00:00 8.3 5 Sudeste 9 Sudeste 0 -- -- 89
2019-06-06 02:00:00 8.5 4 Sudeste 11 Sudeste 0 -- -- 85
2019-06-06 01:00:00 8.2 0 Calma 6 Sudeste 0 -- -- 85
2019-06-06 00:00:00 9.1 0 Calma 10 Sudoeste 0 -- -- 82
2019-06-05 23:00:00 9.8 4 Sudoeste 9 Oeste 0 -- -- 81
2019-06-05 22:00:00 10.7 3 Noroeste 13 Noroeste 0 -- -- 80
2019-06-05 21:00:00 11.2 3 Noroeste 16 Oeste 0 -- -- 72
2019-06-05 20:00:00 11 6 Noroeste 21 Oeste 0 -- -- 73
2019-06-05 19:00:00 13.3 6 Noroeste 26 Noroeste 0 -- -- 65
2019-06-05 18:00:00 14.4 5 Noroeste 23 Sudoeste 0 -- -- 60
2019-06-05 17:00:00 12.7 14 Oeste 35 Oeste 0 -- -- 66
2019-06-05 16:00:00 14.6 9 Noroeste 33 Oeste 0 -- -- 59
2019-06-05 15:00:00 13.8 6 Noroeste 15 Nordeste 0 -- -- 66
2019-06-05 14:00:00 11 6 Oeste 24 Noroeste 0 -- -- 79
2019-06-05 13:00:00 13 6 Noroeste 24 Oeste 0 -- -- 76
2019-06-05 12:00:00 13.3 11 Noroeste 33 Oeste 0 -- -- 63
2019-06-05 11:00:00 11.7 6 Oeste 17 Noroeste 0 -- -- 76
2019-06-05 10:00:00 10.9 3 Oeste 12 Noroeste 0 -- -- 84
2019-06-05 09:00:00 11.3 5 Oeste 12 Oeste 0 -- -- 83
2019-06-05 08:00:00 9 3 Oeste 8 Oeste 0 -- -- 94
2019-06-05 07:00:00 8.6 3 Noroeste 9 Noroeste 0 -- -- 95
2019-06-05 06:00:00 8.7 2 Noroeste 6 Oeste 0 -- -- 94
2019-06-05 05:00:00 8.9 0 Calma 8 Oeste 0 -- -- 94
2019-06-05 04:00:00 9 0 Calma 4 Oeste 0 -- -- 95
2019-06-05 03:00:00 8.9 0 Calma 8 Oeste 0 -- -- 95
2019-06-05 02:00:00 9.6 0 Calma 8 Noroeste 0 -- -- 94
2019-06-05 01:00:00 9.9 2 Noroeste 7 Oeste 0 -- -- 94
2019-06-05 00:00:00 10.1 2 Oeste 12 Oeste 0 -- -- 93
2019-06-04 23:00:00 11.3 5 Oeste 15 Oeste 0 -- -- 87
2019-06-04 22:00:00 12 4 Norte 17 Noroeste 0 -- -- 81
2019-06-04 21:00:00 12.5 5 Noroeste 17 Noroeste 0 -- -- 75
2019-06-04 20:00:00 13.2 8 Noroeste 22 Noroeste 0 -- -- 64
2019-06-04 19:00:00 13.9 8 Noroeste 31 Noroeste 0 -- -- 75
2019-06-04 18:00:00 17 9 Noroeste 33 Oeste 0 -- -- 57
2019-06-04 17:00:00 17.9 16 Noroeste 37 Noroeste 0 -- -- 56
2019-06-04 16:00:00 19 12 Oeste 27 Oeste 0 -- -- 47
2019-06-04 15:00:00 18.8 12 Oeste 28 Oeste 0 -- -- 45
2019-06-04 14:00:00 18.3 12 Oeste 27 Oeste 0 -- -- 47
2019-06-04 13:00:00 16.7 13 Oeste 27 Oeste 0 -- -- 53
2019-06-04 12:00:00 15.6 8 Oeste 18 Noroeste 0 -- -- 73
2019-06-04 11:00:00 12.3 9 Noroeste 26 Noroeste 0 -- -- 90
2019-06-04 10:00:00 13.4 6 Sudoeste 18 Oeste 0 -- -- 90
2019-06-04 09:00:00 14.1 4 Sudoeste 16 Sur 0 -- -- 81
2019-06-04 08:00:00 14.3 4 Sudoeste 20 Sur 0 -- -- 76
2019-06-04 07:00:00 13.7 4 Sur 17 Sur 0 -- -- 74
2019-06-04 06:00:00 13.3 3 Sur 20 Sudeste 0 -- -- 75
2019-06-04 05:00:00 13.2 6 Sur 23 Sur 0 -- -- 76
2019-06-04 04:00:00 13.6 5 Sudoeste 19 Sur 0 -- -- 73
2019-06-04 03:00:00 13.6 2 Sudoeste 21 Sudoeste 0 -- -- 75
2019-06-04 02:00:00 13.4 6 Oeste 21 Oeste 0 -- -- 75
2019-06-04 01:00:00 13.8 6 Oeste 16 Oeste 0 -- -- 73
2019-06-04 00:00:00 14.4 4 Oeste 22 Oeste 0 -- -- 73
2019-06-03 23:00:00 15.4 9 Oeste 18 Oeste 0 -- -- 72
2019-06-03 22:00:00 16.4 7 Oeste 18 Oeste 0 -- -- 73
2019-06-03 21:00:00 17.9 8 Oeste 29 Oeste 0 -- -- 69
2019-06-03 20:00:00 19.4 12 Oeste 27 Oeste 0 -- -- 64
2019-06-03 19:00:00 22.5 13 Oeste 28 Noroeste 0 -- -- 57
2019-06-03 18:00:00 22.6 13 Oeste 27 Oeste 0 -- -- 58
2019-06-03 17:00:00 23 13 Oeste 27 Oeste 0 -- -- 59
2019-06-03 16:00:00 22.9 9 Oeste 22 Oeste 0 -- -- 55
2019-06-03 15:00:00 23.2 5 Sudoeste 23 Oeste 0 -- -- 58
2019-06-03 14:00:00 21.6 3 Oeste 13 Oeste 0 -- -- 63
2019-06-03 13:00:00 21 2 Sudoeste 12 Sur 0 -- -- 61
2019-06-03 12:00:00 19.8 4 Sudeste 8 Sudeste 0 -- -- 60
2019-06-03 11:00:00 17.7 4 Sudeste 10 Sur 0 -- -- 71
2019-06-03 10:00:00 16.9 2 Sudeste 6 Sudeste 0 -- -- 72
2019-06-03 09:00:00 15.9 4 Sudeste 11 Sudeste 0 -- -- 71
2019-06-03 08:00:00 15.5 4 Sudeste 9 Sudeste 0 -- -- 74
2019-06-03 07:00:00 15.2 3 Sudeste 10 Sudeste 0 -- -- 77
2019-06-03 06:00:00 15.5 5 Sudeste 9 Sudeste 0 -- -- 79
2019-06-03 05:00:00 15.8 0 Calma 5 Noroeste 0 -- -- 79
2019-06-03 04:00:00 15.9 3 Noroeste 8 Oeste 0 -- -- 81
2019-06-03 03:00:00 16 0 Calma 6 Oeste 0 -- -- 83
2019-06-03 02:00:00 16.7 0 Calma 6 Noroeste 0 -- -- 83
2019-06-03 01:00:00 17.2 3 Noroeste 12 Noroeste 0 -- -- 82
2019-06-03 00:00:00 17.9 5 Noroeste 13 Noroeste 0 -- -- 78
2019-06-02 23:00:00 18.8 4 Noroeste 9 Noroeste 0 -- -- 68
2019-06-02 22:00:00 20 4 Oeste 14 Oeste 0 -- -- 51
2019-06-02 21:00:00 20.9 6 Oeste 15 Oeste 0 -- -- 38
2019-06-02 20:00:00 22.1 4 Noroeste 16 Oeste 0 -- -- 35
2019-06-02 19:00:00 23.2 5 Oeste 22 Noroeste 0 -- -- 35
2019-06-02 18:00:00 25.3 10 Noroeste 24 Oeste 0 -- -- 34
2019-06-02 17:00:00 26.3 11 Oeste 24 Oeste 0 -- -- 33
2019-06-02 16:00:00 27.1 11 Oeste 25 Oeste 0 -- -- 32
2019-06-02 15:00:00 26.6 10 Sudoeste 25 Oeste 0 -- -- 31
2019-06-02 14:00:00 25.8 8 Sudoeste 27 Oeste 0 -- -- 32
2019-06-02 13:00:00 24.6 5 Sudoeste 12 Sudoeste 0 -- -- 39
2019-06-02 12:00:00 24.8 3 Sudoeste 10 Sudeste 0 -- -- 41
2019-06-02 11:00:00 20.9 5 Sudeste 12 Sudeste 0 -- -- 55
2019-06-02 10:00:00 16.9 6 Sudeste 11 Sudeste 0 -- -- 65
2019-06-02 09:00:00 14.8 7 Sudeste 12 Sudeste 0 -- -- 69
2019-06-02 08:00:00 11.9 5 Sudeste 9 Sudeste 0 -- -- 81
2019-06-02 07:00:00 10.7 2 Sudeste 8 Sudeste 0 -- -- 84
2019-06-02 06:00:00 11.6 6 Sudeste 11 Sudeste 0 -- -- 82
2019-06-02 05:00:00 12 3 Sudeste 8 Sudeste 0 -- -- 83
2019-06-02 04:00:00 12.8 3 Sur 8 Sur 0 -- -- 81
2019-06-02 03:00:00 13.7 4 Sudeste 6 Sudeste 0 -- -- 79
2019-06-02 02:00:00 14.7 0 Calma 4 Oeste 0 -- -- 73
2019-06-02 01:00:00 16.1 0 Calma 4 Oeste 0 -- -- 72
2019-06-02 00:00:00 18.4 0 Calma 4 Sudeste 0 -- -- 65
2019-06-01 23:00:00 20.7 0 Calma 8 Oeste 0 -- -- 55
2019-06-01 22:00:00 23.3 3 Oeste 13 Noroeste 0 -- -- 48
2019-06-01 21:00:00 26.4 6 Noroeste 20 Oeste 0 -- -- 38
2019-06-01 20:00:00 29.9 9 Oeste 22 Oeste 0 -- -- 26
2019-06-01 19:00:00 31 12 Oeste 25 Oeste 0 -- -- 24
2019-06-01 18:00:00 31.9 10 Oeste 27 Oeste 0 -- -- 23
2019-06-01 17:00:00 31.9 12 Oeste 28 Noroeste 0 -- -- 29
2019-06-01 16:00:00 31.6 9 Oeste 21 Oeste 0 -- -- 29
2019-06-01 15:00:00 31.7 6 Noroeste 20 Oeste 0 -- -- 30
2019-06-01 14:00:00 31.4 5 Noroeste 15 Oeste 0 -- -- 32
2019-06-01 13:00:00 29.3 4 Sur 11 Oeste 0 -- -- 42
2019-06-01 12:00:00 27.6 3 Sur 9 Este 0 -- -- 48
2019-06-01 11:00:00 24.4 4 Sudeste 9 Sudeste 0 -- -- 54
2019-06-01 10:00:00 21.8 4 Sur 10 Sur 0 -- -- 58
2019-06-01 09:00:00 19 0 Calma 9 Sudeste 0 -- -- 64
2019-06-01 08:00:00 15.7 2 Sur 6 Sudeste 0 -- -- 77
2019-06-01 07:00:00 13.2 3 Sudeste 8 Este 0 -- -- 85
2019-06-01 06:00:00 13.8 3 Sudeste 7 Sudeste 0 -- -- 82
2019-06-01 05:00:00 14.4 2 Sudeste 7 Sudeste 0 -- -- 83
2019-06-01 04:00:00 15.2 2 Sur 5 Sudeste 0 -- -- 81
2019-06-01 03:00:00 16.1 0 Calma 4 Sudeste 0 -- -- 77
2019-06-01 02:00:00 17.8 0 Calma 5 Noroeste 0 -- -- 65
2019-06-01 01:00:00 18.8 2 Norte 6 Noroeste 0 -- -- 61
2019-06-01 00:00:00 20.6 3 Noroeste 9 Oeste 0 -- -- 58
2019-05-31 23:00:00 22.9 4 Noroeste 12 Norte 0 -- -- 56
2019-05-31 22:00:00 26.2 4 Norte 16 Noroeste 0 -- -- 43
2019-05-31 21:00:00 28.2 9 Norte 23 Norte 0 -- -- 36
2019-05-31 20:00:00 30.8 11 Norte 24 Noroeste 0 -- -- 35
2019-05-31 19:00:00 36.1 3 Sur 12 Sudeste 0 -- -- 21
2019-05-31 18:00:00 34.8 3 Sudoeste 12 Oeste 0 -- -- 21
2019-05-31 17:00:00 34.4 3 Oeste 14 Sudeste 0 -- -- 21
2019-05-31 16:00:00 34.2 4 Sudeste 16 Oeste 0 -- -- 22
2019-05-31 15:00:00 33 5 Oeste 15 Sudeste 0 -- -- 22
2019-05-31 14:00:00 31.8 3 Sur 11 Sudeste 0 -- -- 33
2019-05-31 13:00:00 29.7 4 Sur 13 Sudeste 0 -- -- 39
2019-05-31 12:00:00 27.6 6 Sudeste 12 Sudeste 0 -- -- 45
2019-05-31 11:00:00 24.2 7 Sudeste 15 Este 0 -- -- 52
2019-05-31 10:00:00 21.3 7 Sudeste 13 Sudeste 0 -- -- 59
2019-05-31 09:00:00 17.8 6 Sudeste 10 Sudeste 0 -- -- 67
2019-05-31 08:00:00 14 5 Sudeste 8 Sudeste 0 -- -- 82
2019-05-31 07:00:00 11.8 3 Sudeste 6 Sudeste 0 -- -- 89
2019-05-31 06:00:00 12.4 2 Sudeste 6 Este 0 -- -- 87
2019-05-31 05:00:00 12.7 0 Calma 3 Noroeste 0 -- -- 84
2019-05-31 04:00:00 13.7 0 Calma 4 Noroeste 0 -- -- 80
2019-05-31 03:00:00 14.7 0 Calma 10 Noroeste 0 -- -- 76
2019-05-31 02:00:00 15.9 5 Noroeste 10 Noroeste 0 -- -- 72
2019-05-31 01:00:00 17.3 4 Noroeste 12 Noroeste 0 -- -- 66
2019-05-31 00:00:00 18.9 3 Oeste 13 Noroeste 0 -- -- 60
2019-05-30 23:00:00 20.1 5 Noroeste 13 Noroeste 0 -- -- 58
2019-05-30 22:00:00 22.8 4 Noroeste 21 Norte 0 -- -- 51
2019-05-30 21:00:00 25.4 8 Norte 27 Norte 0 -- -- 43
2019-05-30 20:00:00 28.6 12 Nordeste 26 Nordeste 0 -- -- 36
2019-05-30 19:00:00 31.2 9 Nordeste 21 Nordeste 0 -- -- 31
2019-05-30 18:00:00 31.6 9 Nordeste 23 Nordeste 0 -- -- 24
2019-05-30 17:00:00 31.6 6 Norte 17 Norte 0 -- -- 29
2019-05-30 16:00:00 31.1 4 Noroeste 10 Oeste 0 -- -- 27
2019-05-30 15:00:00 30 3 Oeste 10 Noroeste 0 -- -- 32
2019-05-30 14:00:00 28.6 3 Sudeste 9 Sur 0 -- -- 33
2019-05-30 13:00:00 26 3 Este 13 Sudeste 0 -- -- 40
2019-05-30 12:00:00 24.1 4 Sudeste 11 Este 0 -- -- 44
2019-05-30 11:00:00 20.7 4 Sudeste 11 Sudeste 0 -- -- 60
2019-05-30 10:00:00 17.9 6 Sudeste 16 Este 0 -- -- 67
2019-05-30 09:00:00 15.2 4 Sudeste 8 Sudeste 0 -- -- 73
2019-05-30 08:00:00 11.1 3 Sur 5 Sur 0 -- -- 91
2019-05-30 07:00:00 9.3 2 Sur 5 Sudeste 0 -- -- 92
2019-05-30 06:00:00 10 2 Sudeste 6 Sudeste 0 -- -- 92
2019-05-30 05:00:00 10.1 0 Calma 6 Noroeste 0 -- -- 90
2019-05-30 04:00:00 11 2 Noroeste 5 Noroeste 0 -- -- 89
2019-05-30 03:00:00 11.4 3 Noroeste 10 Noroeste 0 -- -- 89
2019-05-30 02:00:00 12.2 4 Noroeste 14 Noroeste 0 -- -- 85
2019-05-30 01:00:00 12.7 7 Noroeste 15 Noroeste 0 -- -- 85
2019-05-30 00:00:00 13.9 6 Noroeste 17 Noroeste 0 -- -- 82
2019-05-29 23:00:00 15.6 7 Noroeste 18 Oeste 0 -- -- 78
2019-05-29 22:00:00 17.6 6 Noroeste 26 Norte 0 -- -- 71
2019-05-29 21:00:00 20.6 10 Norte 26 Norte 0 -- -- 61
2019-05-29 20:00:00 23.3 10 Norte 26 Norte 0 -- -- 52
2019-05-29 19:00:00 25.2 10 Norte 25 Nordeste 0 -- -- 47
2019-05-29 18:00:00 25.6 9 Norte 24 Norte 0 -- -- 44
2019-05-29 17:00:00 24.8 10 Norte 27 Nordeste 0 -- -- 48
2019-05-29 16:00:00 24.6 12 Norte 28 Nordeste 0 -- -- 48
2019-05-29 15:00:00 24.6 12 Norte 24 Norte 0 -- -- 43
2019-05-29 14:00:00 23.6 10 Norte 21 Nordeste 0 -- -- 44
2019-05-29 13:00:00 21.3 8 Norte 19 Nordeste 0 -- -- 50
2019-05-29 12:00:00 19.2 7 Norte 15 Norte 0 -- -- 55
2019-05-29 11:00:00 17.1 6 Nordeste 15 Nordeste 0 -- -- 57
2019-05-29 10:00:00 14.1 4 Noroeste 8 Oeste 0 -- -- 70
2019-05-29 09:00:00 12.4 3 Noroeste 6 Noroeste 0 -- -- 76
2019-05-29 08:00:00 8.6 3 Noroeste 8 Noroeste 0 -- -- 90
2019-05-29 07:00:00 7.7 2 Noroeste 10 Norte 0 -- -- 92
2019-05-29 06:00:00 8.5 5 Norte 11 Noroeste 0 -- -- 91
2019-05-29 05:00:00 8.7 5 Norte 12 Noroeste 0 -- -- 91
2019-05-29 04:00:00 9.2 4 Norte 12 Norte 0 -- -- 90
2019-05-29 03:00:00 9.4 4 Norte 13 Norte 0 -- -- 89
2019-05-29 02:00:00 9.8 5 Norte 17 Norte 0 -- -- 87
2019-05-29 01:00:00 10.2 5 Norte 18 Norte 0 -- -- 85
2019-05-29 00:00:00 10.8 6 Norte 21 Nordeste 0 -- -- 81
2019-05-28 23:00:00 11.5 10 Norte 31 Nordeste 0 -- -- 76
2019-05-28 22:00:00 13 12 Norte 26 Nordeste 0 -- -- 66
2019-05-28 21:00:00 15.4 10 Norte 27 Nordeste 0 -- -- 54
2019-05-28 20:00:00 17.6 11 Norte 26 Norte 0 -- -- 47
2019-05-28 19:00:00 18.5 12 Nordeste 34 Este 0 -- -- 47
2019-05-28 18:00:00 19.1 12 Norte 32 Este 0 -- -- 47
2019-05-28 17:00:00 19 12 Nordeste 29 Nordeste 0 -- -- 44
2019-05-28 16:00:00 18.8 14 Nordeste 31 Nordeste 0 -- -- 42
2019-05-28 15:00:00 19.4 11 Norte 28 Norte 0 -- -- 43
2019-05-28 14:00:00 18.3 11 Norte 25 Norte 0 -- -- 47
2019-05-28 13:00:00 17.3 8 Nordeste 23 Nordeste 0 -- -- 51
2019-05-28 12:00:00 16 12 Nordeste 23 Este 0 -- -- 54
2019-05-28 11:00:00 14.1 12 Nordeste 23 Este 0 -- -- 64
2019-05-28 10:00:00 13.3 8 Nordeste 17 Nordeste 0 -- -- 72
2019-05-28 09:00:00 9.8 4 Norte 13 Norte 0 -- -- 88
2019-05-28 08:00:00 8 2 Noroeste 7 Norte 0 -- -- 92
2019-05-28 07:00:00 7.5 2 Noroeste 7 Oeste 0 -- -- 93
2019-05-28 06:00:00 7.9 2 Noroeste 7 Noroeste 0 -- -- 92
2019-05-28 05:00:00 8.4 3 Norte 12 Norte 0 -- -- 90
2019-05-28 04:00:00 8.8 3 Noroeste 13 Norte 0 -- -- 89
2019-05-28 03:00:00 9.4 5 Norte 21 Norte 0 -- -- 87
2019-05-28 02:00:00 9.9 5 Norte 13 Nordeste 0 -- -- 84
2019-05-28 01:00:00 10 4 Norte 18 Norte 0 -- -- 82
2019-05-28 00:00:00 10.4 6 Norte 19 Norte 0 -- -- 83
2019-05-27 23:00:00 11 9 Norte 29 Noroeste 0 -- -- 77
2019-05-27 22:00:00 12.1 11 Norte 24 Norte 0 -- -- 73
2019-05-27 21:00:00 14.1 12 Nordeste 31 Nordeste 0 -- -- 65
2019-05-27 20:00:00 17.2 11 Nordeste 28 Norte 0 -- -- 56
2019-05-27 19:00:00 18.8 10 Norte 29 Nordeste 0 -- -- 50
2019-05-27 18:00:00 19.4 13 Norte 31 Nordeste 0 -- -- 49
2019-05-27 17:00:00 20.7 10 Norte 30 Norte 0 -- -- 47
2019-05-27 16:00:00 20.5 9 Nordeste 30 Nordeste 0 -- -- 47
2019-05-27 15:00:00 20 11 Norte 30 Nordeste 0 -- -- 54
2019-05-27 14:00:00 18.8 13 Norte 28 Norte 0 -- -- 60
2019-05-27 13:00:00 19.8 7 Nordeste 17 Nordeste 0 -- -- 60
2019-05-27 12:00:00 16.4 6 Norte 16 Norte 0 -- -- 75
2019-05-27 11:00:00 14.9 5 Norte 12 Noroeste 0 -- -- 86
2019-05-27 10:00:00 13 2 Oeste 7 Oeste 0 -- -- 94
2019-05-27 09:00:00 11.9 3 Oeste 5 Noroeste 0 -- -- 96
2019-05-27 08:00:00 11.6 2 Noroeste 6 Oeste 0 -- -- 95
2019-05-27 07:00:00 11.5 2 Noroeste 7 Noroeste 0 -- -- 93
2019-05-27 06:00:00 11.4 2 Noroeste 9 Norte 0 -- -- 93
2019-05-27 05:00:00 11.2 3 Norte 8 Nordeste 0 -- -- 93
2019-05-27 04:00:00 11.2 4 Norte 11 Norte 0 -- -- 92
2019-05-27 03:00:00 11.3 4 Norte 12 Norte 0 -- -- 92
2019-05-27 02:00:00 11.7 5 Norte 24 Noroeste 0 -- -- 90
2019-05-27 01:00:00 11.9 5 Noroeste 13 Norte 0 -- -- 89
2019-05-27 00:00:00 12.1 7 Norte 17 Nordeste 0 -- -- 88
2019-05-26 23:00:00 13.1 6 Norte 17 Norte 0 -- -- 84
2019-05-26 22:00:00 14.9 10 Norte 23 Nordeste 0 -- -- 76
2019-05-26 21:00:00 17.8 10 Nordeste 20 Norte 0 -- -- 64
2019-05-26 20:00:00 21.3 8 Nordeste 30 Nordeste 0 -- -- 52
2019-05-26 19:00:00 22.9 12 Nordeste 25 Nordeste 0 -- -- 49
2019-05-26 18:00:00 24 9 Nordeste 23 Norte 0 -- -- 48
2019-05-26 17:00:00 24.4 8 Norte 23 Nordeste 0 -- -- 46
2019-05-26 16:00:00 22.4 11 Nordeste 24 Nordeste 0 -- -- 50
2019-05-26 15:00:00 21.5 7 Norte 22 Norte 0 -- -- 52
2019-05-26 14:00:00 19.5 9 Norte 21 Nordeste 0 -- -- 58
2019-05-26 13:00:00 17.1 8 Norte 18 Norte 0 -- -- 65
2019-05-26 12:00:00 15.5 6 Norte 17 Norte 0 -- -- 70
2019-05-26 11:00:00 12.8 8 Nordeste 17 Nordeste 0 -- -- 79
2019-05-26 10:00:00 11.7 4 Norte 13 Nordeste 0 -- -- 85
2019-05-26 09:00:00 10.6 4 Norte 13 Norte 0 -- -- 90
2019-05-26 08:00:00 10.2 6 Nordeste 17 Nordeste 0 -- -- 89
2019-05-26 07:00:00 10.2 5 Norte 19 Nordeste 0 -- -- 90
2019-05-26 06:00:00 9.9 4 Norte 14 Norte 0 -- -- 91
2019-05-26 05:00:00 9 3 Noroeste 10 Noroeste 0 -- -- 94
2019-05-26 04:00:00 9.2 3 Noroeste 21 Norte 0 -- -- 92
2019-05-26 03:00:00 10 8 Norte 19 Norte 0 -- -- 89
2019-05-26 02:00:00 10.3 5 Norte 19 Norte 0 -- -- 88
2019-05-26 01:00:00 10.8 9 Norte 23 Norte 0 -- -- 85
2019-05-26 00:00:00 11.4 10 Norte 23 Norte 0 -- -- 83